createdAt,value
2022-09-30T00:01:29.519Z,8.17
2022-09-30T00:03:57.668Z,6.63
2022-09-30T00:06:26.817Z,5.80
2022-09-30T00:08:53.527Z,7.87
2022-09-30T00:11:27.527Z,6.97
2022-09-30T00:13:55.494Z,5.50
2022-09-30T00:16:23.458Z,8.80
2022-09-30T00:18:51.205Z,6.07
2022-09-30T00:21:18.108Z,7.20
2022-09-30T00:23:45.521Z,7.03
2022-09-30T00:26:15.049Z,7.40
2022-09-30T00:28:43.594Z,8.10
2022-09-30T00:31:16.121Z,7.73
2022-09-30T00:33:44.517Z,7.10
2022-09-30T00:36:11.441Z,6.13
2022-09-30T00:38:37.952Z,5.73
2022-09-30T00:41:04.762Z,5.47
2022-09-30T00:43:51.461Z,7.93
2022-09-30T00:46:30.104Z,6.13
2022-09-30T00:48:58.429Z,19.73
2022-09-30T00:51:32.747Z,10.17
2022-09-30T00:54:03.318Z,6.90
2022-09-30T00:56:37.351Z,6.23
2022-09-30T00:59:13.498Z,8.13
2022-09-30T01:01:42.021Z,7.00
2022-09-30T01:04:17.689Z,9.60
2022-09-30T01:06:45.280Z,6.47
2022-09-30T01:09:12.297Z,10.10
2022-09-30T01:11:39.616Z,7.20
2022-09-30T01:14:12.542Z,7.43
2022-09-30T01:16:42.069Z,9.07
2022-09-30T01:19:24.591Z,8.47
2022-09-30T01:22:10.000Z,7.10
2022-09-30T01:25:04.647Z,9.50
2022-09-30T01:27:56.375Z,7.50
2022-09-30T01:31:00.654Z,8.13
2022-09-30T01:34:07.791Z,9.40
2022-09-30T01:37:03.417Z,9.00
2022-09-30T01:40:27.796Z,8.77
2022-09-30T01:43:11.278Z,7.20
2022-09-30T01:45:46.451Z,14.00
2022-09-30T01:48:24.076Z,14.97
2022-09-30T01:51:09.986Z,7.87
2022-09-30T01:54:00.192Z,12.93
2022-09-30T01:56:41.716Z,9.00
2022-09-30T01:59:17.402Z,6.57
2022-09-30T02:01:50.210Z,8.23
2022-09-30T02:04:33.429Z,11.80
2022-09-30T02:07:05.325Z,8.40
2022-09-30T02:09:41.297Z,7.73
2022-09-30T02:12:15.345Z,7.37
2022-09-30T02:14:46.595Z,7.20
2022-09-30T02:17:19.743Z,11.10
2022-09-30T02:19:56.665Z,8.10
2022-09-30T02:22:33.390Z,7.50
2022-09-30T02:25:03.851Z,8.43
2022-09-30T02:27:40.378Z,12.03
2022-09-30T02:30:09.301Z,8.40
2022-09-30T02:32:44.090Z,13.63
2022-09-30T02:35:18.531Z,8.57
2022-09-30T02:37:55.632Z,9.27
2022-09-30T02:40:32.138Z,8.77
2022-09-30T02:42:59.013Z,9.63
2022-09-30T02:45:27.111Z,7.93
2022-09-30T02:48:12.843Z,8.60
2022-09-30T02:50:47.521Z,8.13
2022-09-30T02:53:30.816Z,7.43
2022-09-30T02:56:19.432Z,7.80
2022-09-30T02:58:47.474Z,8.67
2022-09-30T03:01:16.074Z,7.57
2022-09-30T03:03:57.057Z,7.23
2022-09-30T03:06:24.793Z,8.50
2022-09-30T03:08:52.967Z,15.57
2022-09-30T03:11:25.795Z,11.57
2022-09-30T03:14:14.750Z,9.00
2022-09-30T03:17:10.949Z,9.33
2022-09-30T03:20:08.865Z,14.70
2022-09-30T03:23:03.144Z,10.53
2022-09-30T03:25:51.299Z,10.50
2022-09-30T03:28:24.003Z,10.20
2022-09-30T03:31:01.880Z,10.67
2022-09-30T03:33:59.127Z,10.20
2022-09-30T03:36:55.556Z,14.97
2022-09-30T03:39:35.746Z,10.97
2022-09-30T03:42:11.088Z,12.57
2022-09-30T03:45:00.388Z,10.97
2022-09-30T03:47:29.573Z,12.87
2022-09-30T03:50:01.369Z,14.03
2022-09-30T03:52:32.019Z,15.20
2022-09-30T03:55:02.632Z,16.63
2022-09-30T03:57:30.470Z,19.63
2022-09-30T03:59:58.467Z,14.43
2022-09-30T04:02:26.046Z,13.67
2022-09-30T04:04:53.266Z,13.90
2022-09-30T04:07:19.839Z,16.23
2022-09-30T04:09:46.512Z,13.70
2022-09-30T04:12:13.331Z,13.90
2022-09-30T04:14:39.917Z,13.30
2022-09-30T04:17:07.069Z,17.77
2022-09-30T04:19:38.155Z,14.93
2022-09-30T04:22:04.744Z,15.70
2022-09-30T04:24:31.575Z,15.83
2022-09-30T04:26:58.339Z,28.03
2022-09-30T04:29:25.276Z,19.00
2022-09-30T04:31:52.111Z,22.97
2022-09-30T04:34:18.773Z,17.30
2022-09-30T04:36:45.799Z,20.43
2022-09-30T04:39:12.549Z,19.07
2022-09-30T04:41:39.138Z,15.87
2022-09-30T04:44:06.303Z,16.50
2022-09-30T04:46:36.593Z,15.40
2022-09-30T04:49:08.998Z,15.77
2022-09-30T04:51:36.439Z,19.17
2022-09-30T04:54:03.536Z,17.13
2022-09-30T04:56:30.135Z,16.80
2022-09-30T04:58:57.325Z,18.10
2022-09-30T05:01:24.467Z,17.97
2022-09-30T05:03:51.202Z,17.60
2022-09-30T05:06:18.023Z,18.40
2022-09-30T05:08:46.113Z,16.80
2022-09-30T05:11:18.513Z,16.70
2022-09-30T05:13:45.936Z,19.00
2022-09-30T05:16:13.278Z,16.87
2022-09-30T05:18:45.441Z,16.67
2022-09-30T05:21:14.571Z,14.10
2022-09-30T05:23:41.251Z,16.70
2022-09-30T05:26:12.310Z,29.97
2022-09-30T05:28:39.856Z,32.13
2022-09-30T05:31:06.678Z,18.63
2022-09-30T05:33:35.670Z,23.43
2022-09-30T05:36:05.381Z,27.47
2022-09-30T05:38:32.165Z,22.33
2022-09-30T05:40:59.184Z,26.33
2022-09-30T05:43:25.747Z,19.93
2022-09-30T05:45:56.796Z,27.03
2022-09-30T05:48:25.433Z,25.57
2022-09-30T05:51:00.862Z,18.90
2022-09-30T05:53:28.409Z,19.53
2022-09-30T05:55:55.217Z,21.00
2022-09-30T05:58:21.885Z,18.27
2022-09-30T06:00:49.505Z,19.43
2022-09-30T06:03:17.426Z,19.90
2022-09-30T06:05:45.736Z,17.70
2022-09-30T06:08:13.587Z,16.70
2022-09-30T06:10:41.896Z,16.13
2022-09-30T06:13:08.493Z,18.80
2022-09-30T06:15:38.049Z,16.73
2022-09-30T06:18:04.880Z,14.67
2022-09-30T06:20:31.484Z,20.00
2022-09-30T06:23:01.824Z,18.67
2022-09-30T06:25:30.129Z,16.03
2022-09-30T06:27:58.158Z,16.23
2022-09-30T06:30:25.672Z,16.00
2022-09-30T06:32:54.023Z,19.47
2022-09-30T06:35:21.710Z,18.30
2022-09-30T06:37:51.315Z,17.90
2022-09-30T06:40:18.666Z,19.63
2022-09-30T06:42:45.204Z,17.17
2022-09-30T06:45:22.867Z,18.30
2022-09-30T06:48:00.930Z,20.53
2022-09-30T06:50:28.295Z,16.43
2022-09-30T06:52:59.346Z,16.00
2022-09-30T06:55:27.248Z,19.80
2022-09-30T06:57:55.377Z,15.10
2022-09-30T07:00:23.450Z,15.20
2022-09-30T07:02:50.503Z,12.77
2022-09-30T07:05:17.631Z,14.50
2022-09-30T07:07:44.223Z,11.60
2022-09-30T07:10:11.158Z,10.53
2022-09-30T07:12:38.433Z,10.60
2022-09-30T07:15:05.313Z,9.23
2022-09-30T07:17:32.175Z,12.17
2022-09-30T07:19:59.419Z,15.73
2022-09-30T07:22:34.255Z,8.00
2022-09-30T07:25:04.302Z,7.73
2022-09-30T07:27:33.236Z,10.43
2022-09-30T07:32:47.772Z,10.60
2022-09-30T07:35:14.736Z,8.37
2022-09-30T07:37:41.351Z,11.17
2022-09-30T07:40:09.353Z,7.83
2022-09-30T07:42:44.710Z,7.47
2022-09-30T07:45:12.624Z,8.60
2022-09-30T07:47:39.185Z,10.80
2022-09-30T07:50:06.237Z,7.57
2022-09-30T07:52:33.121Z,8.23
2022-09-30T07:54:59.679Z,8.45
2022-09-30T07:57:26.208Z,7.68
2022-09-30T07:59:52.757Z,8.40
2022-09-30T08:02:19.461Z,11.50
2022-09-30T08:04:46.859Z,7.47
2022-09-30T08:07:15.486Z,9.13
2022-09-30T08:09:42.494Z,8.10
2022-09-30T08:12:09.312Z,8.45
2022-09-30T08:14:35.870Z,8.60
2022-09-30T08:17:02.619Z,7.97
2022-09-30T08:19:30.984Z,8.43
2022-09-30T08:21:58.527Z,7.40
2022-09-30T08:24:26.615Z,12.50
2022-09-30T08:26:54.354Z,14.18
2022-09-30T08:29:42.536Z,8.07
2022-09-30T08:32:07.954Z,7.80
2022-09-30T08:34:35.508Z,8.30
2022-09-30T08:37:08.760Z,11.32
2022-09-30T08:39:37.415Z,8.00
2022-09-30T08:42:36.758Z,8.20
2022-09-30T08:45:25.381Z,11.27
2022-09-30T08:48:21.510Z,8.43
2022-09-30T08:50:48.010Z,7.75
2022-09-30T08:53:26.419Z,8.02
2022-09-30T08:55:57.250Z,7.03
2022-09-30T08:58:30.479Z,7.57
2022-09-30T09:01:05.360Z,7.95
2022-09-30T09:03:34.141Z,7.18
2022-09-30T09:06:15.327Z,7.63
2022-09-30T09:09:19.893Z,10.02
2022-09-30T09:11:53.496Z,7.15
2022-09-30T09:14:41.481Z,8.00
2022-09-30T09:17:29.410Z,7.20
2022-09-30T09:20:13.032Z,6.55
2022-09-30T09:22:40.881Z,7.22
2022-09-30T09:25:17.339Z,7.07
2022-09-30T09:28:04.405Z,7.15
2022-09-30T09:30:43.450Z,8.33
2022-09-30T09:33:23.047Z,6.60
2022-09-30T09:36:15.586Z,7.73
2022-09-30T09:38:55.519Z,8.07
2022-09-30T09:41:50.002Z,7.83
2022-09-30T09:44:42.825Z,8.70
2022-09-30T09:47:15.606Z,8.57
2022-09-30T09:49:44.752Z,8.60
2022-09-30T09:52:12.700Z,9.17
2022-09-30T09:54:45.432Z,9.17
2022-09-30T09:57:16.738Z,7.60
2022-09-30T09:59:58.469Z,8.83
2022-09-30T10:02:30.732Z,9.63
2022-09-30T10:05:03.446Z,10.10
2022-09-30T10:07:34.021Z,9.47
2022-09-30T10:10:06.418Z,8.60
2022-09-30T10:12:33.058Z,9.13
2022-09-30T10:15:03.514Z,9.43
2022-09-30T10:17:35.595Z,9.23
2022-09-30T10:20:27.117Z,11.10
2022-09-30T10:23:02.663Z,10.30
2022-09-30T10:25:29.692Z,9.00
2022-09-30T10:28:02.294Z,12.07
2022-09-30T10:30:50.144Z,9.00
2022-09-30T10:33:41.992Z,9.73
2022-09-30T10:36:13.641Z,12.13
2022-09-30T10:39:01.131Z,9.67
2022-09-30T10:41:34.083Z,8.50
2022-09-30T10:44:03.986Z,10.23
2022-09-30T10:46:35.548Z,8.87
2022-09-30T10:49:10.618Z,8.73
2022-09-30T10:51:38.789Z,8.20
2022-09-30T10:54:06.336Z,7.80
2022-09-30T10:56:38.217Z,7.80
2022-09-30T10:59:16.415Z,9.20
2022-09-30T11:01:58.144Z,7.40
2022-09-30T11:04:34.971Z,7.43
2022-09-30T11:07:33.632Z,7.63
2022-09-30T11:10:42.068Z,8.50
2022-09-30T11:13:28.154Z,9.40
2022-09-30T11:16:23.247Z,7.07
2022-09-30T11:19:07.115Z,7.20
2022-09-30T11:21:57.857Z,6.60
2022-09-30T11:24:57.396Z,6.27
2022-09-30T11:27:33.350Z,7.10
2022-09-30T11:30:19.031Z,5.27
2022-09-30T11:33:16.723Z,6.27
2022-09-30T11:35:54.083Z,7.63
2022-09-30T11:38:53.099Z,7.20
2022-09-30T11:41:32.541Z,8.43
2022-09-30T11:44:18.080Z,6.30
2022-09-30T11:47:02.357Z,6.70
2022-09-30T11:49:50.950Z,8.30
2022-09-30T11:52:29.006Z,6.93
2022-09-30T11:55:36.329Z,8.30
2022-09-30T11:58:28.596Z,9.93
2022-09-30T12:01:01.090Z,6.33
2022-09-30T12:03:39.469Z,7.90
2022-09-30T12:06:22.147Z,6.80
2022-09-30T12:08:59.734Z,6.70
2022-09-30T12:11:52.277Z,6.50
2022-09-30T12:14:33.285Z,6.63
2022-09-30T12:17:03.601Z,7.63
2022-09-30T12:19:36.995Z,7.53
2022-09-30T12:22:18.293Z,14.97
2022-09-30T12:24:45.843Z,8.90
2022-09-30T12:27:24.447Z,8.43
2022-09-30T12:30:18.153Z,11.87
2022-09-30T12:33:07.037Z,7.57
2022-09-30T12:36:13.655Z,7.70
2022-09-30T12:39:02.803Z,7.00
2022-09-30T12:41:57.157Z,7.67
2022-09-30T12:44:45.306Z,7.17
2022-09-30T12:47:19.797Z,8.23
2022-09-30T12:49:48.436Z,7.47
2022-09-30T12:52:19.683Z,7.50
2022-09-30T12:54:54.524Z,10.20
2022-09-30T12:57:26.798Z,9.10
2022-09-30T12:59:57.643Z,7.83
2022-09-30T13:02:36.515Z,6.67
2022-09-30T13:05:31.414Z,8.30
2022-09-30T13:08:25.049Z,6.70
2022-09-30T13:11:00.372Z,7.30
2022-09-30T13:13:33.871Z,5.90
2022-09-30T13:16:06.477Z,6.27
2022-09-30T13:18:33.063Z,5.53
2022-09-30T13:21:05.550Z,7.10
2022-09-30T13:23:42.586Z,6.53
2022-09-30T13:26:36.469Z,5.20
2022-09-30T13:29:05.804Z,7.00
2022-09-30T13:31:52.439Z,5.30
2022-09-30T13:34:23.212Z,5.00
2022-09-30T13:37:02.108Z,17.90
2022-09-30T13:39:48.356Z,6.03
2022-09-30T13:42:15.089Z,6.97
2022-09-30T13:45:03.311Z,5.80
2022-09-30T13:47:52.095Z,11.43
2022-09-30T13:50:36.798Z,7.90
2022-09-30T13:53:12.441Z,7.13
2022-09-30T13:55:46.733Z,14.53
2022-09-30T13:58:13.339Z,6.80
2022-09-30T14:01:12.683Z,5.97
2022-09-30T14:03:55.836Z,9.50
2022-09-30T14:06:45.680Z,8.13
2022-09-30T14:09:38.947Z,5.83
2022-09-30T14:12:16.606Z,5.73
2022-09-30T14:15:01.205Z,7.53
2022-09-30T14:17:47.481Z,6.87
2022-09-30T14:20:41.608Z,9.17
2022-09-30T14:23:16.893Z,5.77
2022-09-30T14:25:59.753Z,9.97
2022-09-30T14:28:43.593Z,4.30
2022-09-30T14:31:16.357Z,4.30
2022-09-30T14:33:48.934Z,5.23
2022-09-30T14:36:21.955Z,8.83
2022-09-30T14:39:00.243Z,4.77
2022-09-30T14:41:30.806Z,7.20
2022-09-30T14:44:08.084Z,4.90
2022-09-30T14:46:39.243Z,4.20
2022-09-30T14:49:13.374Z,4.93
2022-09-30T14:51:48.233Z,5.97
2022-09-30T14:54:23.534Z,3.70
2022-09-30T14:56:54.340Z,3.27
2022-09-30T14:59:27.822Z,6.23
2022-09-30T15:02:20.247Z,4.93
2022-09-30T15:05:00.435Z,3.50
2022-09-30T15:07:28.211Z,5.00
2022-09-30T15:10:01.580Z,7.43
2022-09-30T15:12:28.663Z,3.93
2022-09-30T15:14:57.652Z,4.00
2022-09-30T15:17:42.221Z,3.67
2022-09-30T15:20:28.148Z,5.10
2022-09-30T15:22:56.453Z,3.57
2022-09-30T15:25:24.162Z,2.90
2022-09-30T15:27:51.424Z,3.03
2022-09-30T15:30:18.272Z,3.53
2022-09-30T15:32:46.187Z,12.67
2022-09-30T15:35:20.626Z,3.10
2022-09-30T15:37:48.433Z,8.80
2022-09-30T15:40:36.804Z,5.67
2022-09-30T15:43:11.545Z,4.90
2022-09-30T15:45:41.232Z,2.30
2022-09-30T15:48:36.002Z,3.80
2022-09-30T15:51:24.528Z,6.17
2022-09-30T15:53:51.480Z,6.53
2022-09-30T15:56:17.964Z,2.47
2022-09-30T15:58:56.208Z,2.57
2022-09-30T16:01:26.717Z,2.50
2022-09-30T16:03:57.931Z,3.47
2022-09-30T16:06:52.532Z,6.53
2022-09-30T16:09:47.986Z,5.80
2022-09-30T16:12:14.503Z,11.00
2022-09-30T16:14:59.987Z,2.03
2022-09-30T16:17:32.595Z,5.47
2022-09-30T16:20:00.800Z,5.30
2022-09-30T16:22:42.483Z,4.23
2022-09-30T16:25:19.609Z,4.90
2022-09-30T16:27:46.731Z,7.13
2022-09-30T16:30:16.034Z,5.57
2022-09-30T16:32:47.489Z,7.83
2022-09-30T16:35:23.176Z,3.90
2022-09-30T16:37:51.649Z,8.80
2022-09-30T16:40:23.304Z,5.87
2022-09-30T16:42:50.996Z,6.33
2022-09-30T16:45:18.404Z,3.17
2022-09-30T16:47:45.088Z,2.70
2022-09-30T16:50:25.640Z,7.30
2022-09-30T16:52:52.211Z,4.40
2022-09-30T16:55:18.890Z,7.20
2022-09-30T16:57:45.474Z,4.50
2022-09-30T17:00:17.854Z,8.10
2022-09-30T17:02:46.381Z,9.67
2022-09-30T17:05:16.001Z,9.60
2022-09-30T17:07:43.813Z,5.77
2022-09-30T17:10:18.787Z,7.63
2022-09-30T17:12:45.527Z,7.50
2022-09-30T17:15:13.037Z,7.60
2022-09-30T17:17:39.749Z,4.80
2022-09-30T17:20:06.945Z,7.23
2022-09-30T17:22:34.121Z,6.07
2022-09-30T17:25:00.668Z,7.50
2022-09-30T17:27:27.924Z,5.63
2022-09-30T17:29:55.432Z,5.10
2022-09-30T17:32:22.012Z,4.37
2022-09-30T17:34:48.705Z,4.97
2022-09-30T17:37:15.276Z,9.43
2022-09-30T17:39:41.837Z,6.67
2022-09-30T17:42:34.716Z,10.50
2022-09-30T17:45:01.436Z,7.30
2022-09-30T17:47:27.987Z,5.90
2022-09-30T17:49:54.873Z,6.73
2022-09-30T17:52:24.209Z,5.57
2022-09-30T17:54:52.730Z,5.30
2022-09-30T17:57:21.249Z,14.30
2022-09-30T17:59:47.848Z,17.73
2022-09-30T18:02:17.548Z,9.60
2022-09-30T18:04:44.470Z,5.73
2022-09-30T18:07:11.113Z,7.93
2022-09-30T18:09:39.085Z,12.80
2022-09-30T18:12:07.214Z,10.10
2022-09-30T18:14:38.284Z,7.47
2022-09-30T18:17:06.085Z,10.07
2022-09-30T18:19:34.796Z,10.30
2022-09-30T18:22:02.123Z,12.83
2022-09-30T18:24:48.021Z,12.97
2022-09-30T18:27:15.069Z,8.20
2022-09-30T18:29:41.942Z,7.80
2022-09-30T18:32:08.855Z,6.53
2022-09-30T18:34:35.499Z,9.70
2022-09-30T18:37:06.571Z,9.27
2022-09-30T18:39:35.473Z,7.37
2022-09-30T18:42:03.241Z,8.07
2022-09-30T18:44:32.245Z,9.10
2022-09-30T18:47:00.037Z,5.37
2022-09-30T18:49:26.638Z,7.60
2022-09-30T18:51:53.542Z,9.40
2022-09-30T18:54:21.749Z,8.10
2022-09-30T18:56:48.316Z,9.70
2022-09-30T18:59:18.182Z,5.67
2022-09-30T19:01:48.256Z,10.30
2022-09-30T19:04:15.668Z,5.27
2022-09-30T19:06:44.431Z,12.90
2022-09-30T19:09:14.244Z,6.43
2022-09-30T19:11:42.588Z,5.73
2022-09-30T19:14:14.316Z,12.43
2022-09-30T19:16:41.936Z,10.40
2022-09-30T19:19:11.927Z,9.00
2022-09-30T19:21:39.370Z,5.80
2022-09-30T19:24:07.967Z,5.03
2022-09-30T19:26:36.462Z,6.60
2022-09-30T19:29:05.351Z,6.07
2022-09-30T19:31:33.824Z,5.00
2022-09-30T19:34:01.579Z,4.90
2022-09-30T19:36:31.237Z,4.03
2022-09-30T19:39:09.874Z,8.77
2022-09-30T19:41:37.604Z,4.70
2022-09-30T19:44:05.952Z,8.67
2022-09-30T19:46:32.629Z,5.53
2022-09-30T19:48:59.277Z,6.57
2022-09-30T19:51:29.054Z,7.90
2022-09-30T19:54:04.763Z,8.23
2022-09-30T19:56:33.509Z,5.27
2022-09-30T19:59:00.633Z,13.20
2022-09-30T20:01:28.480Z,8.13
2022-09-30T20:03:57.497Z,6.00
2022-09-30T20:06:24.228Z,5.13
2022-09-30T20:08:53.477Z,8.43
2022-09-30T20:11:21.835Z,11.53
2022-09-30T20:14:13.522Z,19.97
2022-09-30T20:16:42.470Z,14.00
2022-09-30T20:19:10.193Z,21.33
2022-09-30T20:21:41.918Z,17.70
2022-09-30T20:24:14.491Z,16.90
2022-09-30T20:26:42.240Z,12.53
2022-09-30T20:29:10.734Z,16.30
2022-09-30T20:31:40.740Z,17.57
2022-09-30T20:34:09.551Z,22.87
2022-09-30T20:36:36.368Z,19.17
2022-09-30T20:39:03.516Z,13.27
2022-09-30T20:41:35.132Z,12.97
2022-09-30T20:44:06.942Z,13.10
2022-09-30T20:46:34.575Z,15.10
2022-09-30T20:49:02.277Z,14.30
2022-09-30T20:51:30.720Z,17.47
2022-09-30T20:53:59.804Z,34.27
2022-09-30T20:56:44.125Z,19.37
2022-09-30T20:59:17.029Z,16.83
2022-09-30T21:01:43.707Z,32.33
2022-09-30T21:04:10.295Z,16.40
2022-09-30T21:06:37.285Z,14.10
2022-09-30T21:09:03.966Z,46.07
2022-09-30T21:11:31.288Z,18.70
2022-09-30T21:13:58.251Z,13.93
2022-09-30T21:16:25.377Z,16.77
2022-09-30T21:18:53.346Z,11.13
2022-09-30T21:21:24.572Z,7.07
2022-09-30T21:23:55.458Z,4.97
2022-09-30T21:26:22.045Z,4.60
2022-09-30T21:28:50.609Z,14.87
2022-09-30T21:31:24.736Z,4.33
2022-09-30T21:33:53.456Z,5.00
2022-09-30T21:36:21.247Z,4.97
2022-09-30T21:38:50.087Z,7.47
2022-09-30T21:41:17.458Z,5.10
2022-09-30T21:43:44.441Z,7.10
2022-09-30T21:46:13.137Z,8.63
2022-09-30T21:48:39.754Z,6.47
2022-09-30T21:51:07.621Z,6.60
2022-09-30T21:53:34.203Z,6.73
2022-09-30T21:56:02.453Z,4.23
2022-09-30T21:58:31.653Z,3.77
2022-09-30T22:01:02.627Z,7.23
2022-09-30T22:03:35.863Z,4.93
2022-09-30T22:06:03.463Z,3.70
2022-09-30T22:08:35.346Z,14.30
2022-09-30T22:11:06.709Z,4.97
2022-09-30T22:13:33.295Z,3.67
2022-09-30T22:16:05.572Z,3.60
2022-09-30T22:18:32.948Z,3.80
2022-09-30T22:21:08.552Z,3.13
2022-09-30T22:23:35.123Z,11.63
2022-09-30T22:26:22.549Z,4.20
2022-09-30T22:28:55.165Z,5.60
2022-09-30T22:31:27.066Z,9.67
2022-09-30T22:34:26.217Z,5.20
2022-09-30T22:37:11.804Z,3.70
2022-09-30T22:39:38.347Z,3.27
2022-09-30T22:42:04.936Z,4.00
2022-09-30T22:44:36.769Z,3.53
2022-09-30T22:47:04.605Z,3.60
2022-09-30T22:49:32.502Z,5.43
2022-09-30T22:52:00.812Z,7.20
2022-09-30T22:54:29.065Z,4.07
2022-09-30T22:56:58.305Z,6.20
2022-09-30T22:59:26.022Z,3.33
2022-09-30T23:01:52.734Z,3.57
2022-09-30T23:04:19.722Z,4.80
2022-09-30T23:06:52.049Z,4.23
2022-09-30T23:09:20.719Z,4.47
2022-09-30T23:11:48.381Z,6.00
2022-09-30T23:14:15.122Z,6.77
2022-09-30T23:16:42.693Z,5.53
2022-09-30T23:19:10.501Z,3.17
2022-09-30T23:21:37.409Z,3.80
2022-09-30T23:24:04.679Z,3.13
2022-09-30T23:26:31.376Z,2.93
2022-09-30T23:29:00.079Z,4.63
2022-09-30T23:31:27.575Z,2.80
2022-09-30T23:34:01.242Z,3.97
2022-09-30T23:36:30.973Z,3.57
2022-09-30T23:39:04.176Z,6.50
2022-09-30T23:41:32.710Z,3.60
2022-09-30T23:43:59.760Z,7.87
2022-09-30T23:46:26.848Z,3.33
2022-09-30T23:48:53.473Z,4.10
2022-09-30T23:51:20.363Z,5.33
2022-09-30T23:53:46.992Z,5.23
2022-09-30T23:56:16.296Z,3.63
2022-09-30T23:58:44.582Z,3.80
